createdAt,value
2017-08-15T00:01:23.000Z,15.30
2017-08-15T00:03:50.700Z,15.30
2017-08-15T00:06:18.324Z,15.40
2017-08-15T00:08:45.979Z,15.40
2017-08-15T00:11:13.613Z,15.30
2017-08-15T00:13:41.253Z,15.30
2017-08-15T00:16:08.934Z,15.30
2017-08-15T00:18:36.580Z,15.40
2017-08-15T00:21:04.257Z,15.40
2017-08-15T00:23:31.892Z,15.40
2017-08-15T00:26:00.289Z,15.30
2017-08-15T00:28:27.965Z,15.30
2017-08-15T00:30:55.600Z,15.30
2017-08-15T00:33:23.265Z,15.30
2017-08-15T00:35:50.902Z,15.30
2017-08-15T00:38:18.537Z,15.30
2017-08-15T00:40:46.230Z,15.30
2017-08-15T00:43:13.851Z,15.20
2017-08-15T00:45:41.521Z,15.20
2017-08-15T00:48:09.147Z,15.10
2017-08-15T00:50:36.775Z,15.10
2017-08-15T00:53:04.445Z,15.10
2017-08-15T00:55:32.081Z,15.10
2017-08-15T00:57:59.757Z,15.10
2017-08-15T01:00:28.148Z,15.00
2017-08-15T01:02:55.777Z,14.90
2017-08-15T01:05:24.211Z,15.10
2017-08-15T01:07:51.848Z,15.00
2017-08-15T01:10:19.596Z,15.00
2017-08-15T01:12:47.227Z,15.10
2017-08-15T01:15:14.921Z,15.20
2017-08-15T01:17:42.571Z,15.20
2017-08-15T01:20:10.204Z,15.20
2017-08-15T01:22:37.884Z,15.20
2017-08-15T01:25:05.506Z,15.20
2017-08-15T01:27:33.136Z,15.10
2017-08-15T01:30:00.798Z,15.20
2017-08-15T01:32:28.424Z,15.20
2017-08-15T01:34:56.081Z,15.30
2017-08-15T01:37:23.729Z,15.40
2017-08-15T01:39:51.365Z,15.50
2017-08-15T01:42:19.035Z,15.60
2017-08-15T01:44:46.747Z,15.50
2017-08-15T01:47:14.425Z,15.50
2017-08-15T01:49:42.051Z,15.50
2017-08-15T01:52:09.704Z,15.50
2017-08-15T01:54:37.363Z,15.50
2017-08-15T01:57:04.997Z,15.60
2017-08-15T01:59:32.667Z,15.70
2017-08-15T02:02:01.059Z,15.60
2017-08-15T02:04:28.686Z,15.60
2017-08-15T02:06:57.116Z,15.70
2017-08-15T02:09:24.781Z,15.60
2017-08-15T02:11:52.453Z,15.50
2017-08-15T02:14:20.089Z,15.50
2017-08-15T02:16:48.488Z,15.50
2017-08-15T02:19:16.139Z,15.40
2017-08-15T02:21:43.805Z,15.50
2017-08-15T02:24:11.456Z,15.50
2017-08-15T02:26:39.088Z,15.60
2017-08-15T02:29:06.732Z,15.60
2017-08-15T02:31:34.458Z,15.60
2017-08-15T02:34:02.101Z,15.60
2017-08-15T02:36:29.767Z,15.60
2017-08-15T02:38:57.400Z,15.70
2017-08-15T02:41:25.038Z,15.70
2017-08-15T02:43:52.693Z,15.70
2017-08-15T02:46:20.398Z,15.70
2017-08-15T02:48:48.121Z,15.70
2017-08-15T02:51:15.760Z,15.70
2017-08-15T02:53:43.442Z,15.70
2017-08-15T02:56:11.095Z,15.70
2017-08-15T02:58:38.716Z,15.80
2017-08-15T03:01:06.366Z,15.80
2017-08-15T03:03:33.997Z,15.80
2017-08-15T03:06:01.629Z,15.80
2017-08-15T03:08:29.295Z,15.80
2017-08-15T03:10:56.934Z,15.80
2017-08-15T03:13:24.636Z,15.90
2017-08-15T03:15:53.028Z,15.80
2017-08-15T03:18:20.660Z,15.80
2017-08-15T03:20:48.328Z,15.80
2017-08-15T03:23:15.952Z,15.80
2017-08-15T03:25:43.611Z,15.90
2017-08-15T03:28:11.248Z,15.90
2017-08-15T03:30:38.868Z,15.90
2017-08-15T03:33:06.540Z,15.80
2017-08-15T03:35:34.154Z,15.90
2017-08-15T03:38:01.815Z,15.90
2017-08-15T03:40:30.200Z,15.90
2017-08-15T03:42:57.833Z,15.90
2017-08-15T03:45:25.492Z,15.90
2017-08-15T03:47:53.128Z,15.90
2017-08-15T03:50:20.803Z,15.90
2017-08-15T03:52:48.441Z,16.00
2017-08-15T03:55:16.066Z,16.00
2017-08-15T03:57:43.753Z,16.00
2017-08-15T04:00:11.381Z,16.00
2017-08-15T04:02:39.058Z,16.00
2017-08-15T04:05:06.745Z,16.00
2017-08-15T04:07:35.135Z,16.00
2017-08-15T04:10:02.811Z,16.00
2017-08-15T04:12:30.435Z,16.10
2017-08-15T04:14:58.099Z,16.10
2017-08-15T04:17:25.767Z,16.10
2017-08-15T04:19:53.391Z,16.10
2017-08-15T04:22:21.066Z,16.20
2017-08-15T04:24:48.699Z,16.20
2017-08-15T04:27:16.371Z,16.20
2017-08-15T04:29:45.491Z,16.20
2017-08-15T04:32:13.137Z,16.20
2017-08-15T04:34:40.818Z,16.20
2017-08-15T04:37:08.445Z,16.30
2017-08-15T04:39:36.113Z,16.30
2017-08-15T04:42:03.753Z,16.30
2017-08-15T04:44:31.420Z,16.30
2017-08-15T04:46:59.111Z,16.30
2017-08-15T04:49:26.754Z,16.40
2017-08-15T04:51:54.423Z,16.60
2017-08-15T04:54:22.061Z,16.70
2017-08-15T04:56:49.752Z,16.90
2017-08-15T04:59:17.456Z,16.90
2017-08-15T05:01:45.091Z,17.00
2017-08-15T05:04:12.765Z,17.10
2017-08-15T05:06:40.387Z,17.30
2017-08-15T05:09:08.062Z,17.50
2017-08-15T05:11:35.716Z,17.60
2017-08-15T05:14:03.350Z,17.70
2017-08-15T05:16:31.008Z,17.80
2017-08-15T05:18:58.636Z,18.00
2017-08-15T05:21:26.235Z,18.00
2017-08-15T05:23:53.876Z,18.20
2017-08-15T05:26:21.486Z,18.40
2017-08-15T05:28:49.139Z,18.50
2017-08-15T05:31:16.748Z,18.60
2017-08-15T05:33:45.124Z,18.90
2017-08-15T05:36:12.797Z,18.90
2017-08-15T05:38:40.431Z,18.90
2017-08-15T05:41:08.078Z,19.00
2017-08-15T05:43:35.697Z,19.10
2017-08-15T05:46:04.117Z,19.30
2017-08-15T05:48:31.845Z,19.30
2017-08-15T05:50:59.469Z,19.40
2017-08-15T05:53:27.129Z,19.60
2017-08-15T05:55:54.734Z,19.80
2017-08-15T05:58:22.349Z,20.00
2017-08-15T06:00:49.997Z,20.00
2017-08-15T06:03:17.613Z,20.10
2017-08-15T06:05:45.257Z,20.20
2017-08-15T06:08:12.877Z,20.30
2017-08-15T06:10:41.258Z,20.70
2017-08-15T06:13:08.927Z,20.60
2017-08-15T06:15:36.541Z,20.90
2017-08-15T06:18:04.953Z,21.00
2017-08-15T06:20:32.705Z,21.00
2017-08-15T06:23:00.315Z,21.10
2017-08-15T06:25:27.967Z,21.20
2017-08-15T06:27:55.585Z,21.30
2017-08-15T06:30:23.997Z,21.60
2017-08-15T06:32:51.593Z,21.50
2017-08-15T06:35:19.987Z,22.20
2017-08-15T06:37:47.625Z,22.20
2017-08-15T06:40:15.241Z,22.60
2017-08-15T06:42:42.886Z,22.80
2017-08-15T06:45:10.479Z,23.00
2017-08-15T06:47:38.076Z,23.50
2017-08-15T06:50:05.708Z,23.80
2017-08-15T06:52:33.327Z,23.90
2017-08-15T06:55:00.978Z,24.30
2017-08-15T06:57:28.629Z,24.80
2017-08-15T06:59:56.241Z,25.10
2017-08-15T07:02:23.885Z,25.30
2017-08-15T07:04:51.498Z,25.70
2017-08-15T07:07:19.144Z,26.00
2017-08-15T07:09:46.749Z,26.30
2017-08-15T07:12:14.344Z,26.80
2017-08-15T07:14:42.009Z,27.20
2017-08-15T07:17:10.382Z,26.60
2017-08-15T07:19:38.028Z,26.50
2017-08-15T07:22:05.630Z,26.90
2017-08-15T07:24:33.232Z,26.90
2017-08-15T07:27:00.870Z,27.00
2017-08-15T07:29:28.468Z,27.20
2017-08-15T07:31:56.107Z,27.70
2017-08-15T07:34:23.716Z,28.30
2017-08-15T07:36:51.325Z,28.30
2017-08-15T07:39:19.166Z,27.90
2017-08-15T07:41:46.828Z,27.60
2017-08-15T07:44:15.401Z,28.00
2017-08-15T07:46:43.767Z,28.10
2017-08-15T07:49:11.378Z,28.10
2017-08-15T07:51:39.041Z,28.30
2017-08-15T07:54:07.420Z,28.60
2017-08-15T07:56:35.829Z,28.80
2017-08-15T07:59:03.445Z,28.70
2017-08-15T08:01:31.077Z,28.80
2017-08-15T08:03:59.493Z,28.70
2017-08-15T08:06:27.095Z,28.60
2017-08-15T08:08:54.728Z,28.60
2017-08-15T08:11:23.101Z,28.40
2017-08-15T08:13:51.480Z,28.70
2017-08-15T08:16:19.155Z,28.70
2017-08-15T08:18:46.753Z,29.10
2017-08-15T08:21:15.758Z,29.60
2017-08-15T08:23:43.366Z,29.50
2017-08-15T08:26:11.789Z,28.50
2017-08-15T08:28:39.464Z,28.40
2017-08-15T08:31:07.066Z,30.10
2017-08-15T08:33:34.701Z,30.30
2017-08-15T08:36:02.298Z,29.60
2017-08-15T08:38:29.924Z,29.50
2017-08-15T08:40:57.559Z,29.30
2017-08-15T08:43:25.176Z,29.90
2017-08-15T08:45:52.821Z,30.10
2017-08-15T08:48:20.461Z,30.40
2017-08-15T08:50:48.841Z,30.10
2017-08-15T08:53:16.504Z,30.10
2017-08-15T08:55:44.122Z,30.40
2017-08-15T08:58:12.531Z,31.20
2017-08-15T09:00:40.154Z,31.10
2017-08-15T09:03:07.767Z,31.00
2017-08-15T09:05:36.197Z,31.40
2017-08-15T09:08:03.810Z,31.40
2017-08-15T09:10:31.448Z,31.70
2017-08-15T09:12:59.072Z,31.60
2017-08-15T09:15:26.688Z,31.00
2017-08-15T09:17:54.325Z,30.30
2017-08-15T09:20:21.940Z,30.20
2017-08-15T09:22:49.640Z,30.80
2017-08-15T09:25:17.256Z,30.60
2017-08-15T09:27:44.861Z,30.40
2017-08-15T09:30:12.510Z,30.60
2017-08-15T09:32:40.213Z,30.30
2017-08-15T09:35:07.856Z,30.70
2017-08-15T09:37:35.468Z,30.50
2017-08-15T09:40:04.763Z,29.90
2017-08-15T09:42:32.406Z,30.10
2017-08-15T09:45:00.037Z,29.90
2017-08-15T09:47:27.681Z,30.10
2017-08-15T09:49:55.271Z,29.70
2017-08-15T09:52:22.890Z,30.30
2017-08-15T09:54:50.552Z,30.20
2017-08-15T09:57:18.176Z,30.80
2017-08-15T09:59:45.820Z,29.50
2017-08-15T10:02:13.441Z,29.00
2017-08-15T10:04:41.102Z,28.30
2017-08-15T10:07:08.709Z,28.20
2017-08-15T10:09:36.320Z,28.00
2017-08-15T10:12:03.972Z,27.60
2017-08-15T10:14:31.581Z,27.40
2017-08-15T10:16:59.220Z,27.00
2017-08-15T10:19:27.601Z,27.10
2017-08-15T10:21:55.216Z,27.10
2017-08-15T10:24:23.617Z,27.70
2017-08-15T10:26:51.231Z,27.60
2017-08-15T10:29:19.664Z,28.90
2017-08-15T10:31:47.282Z,28.80
2017-08-15T10:34:14.898Z,28.50
2017-08-15T10:36:43.298Z,27.90
2017-08-15T10:39:10.913Z,27.80
2017-08-15T10:41:38.542Z,27.70
2017-08-15T10:44:06.911Z,27.80
2017-08-15T10:46:35.272Z,27.90
2017-08-15T10:49:03.693Z,28.20
2017-08-15T10:51:31.292Z,28.10
2017-08-15T10:53:59.714Z,29.10
2017-08-15T10:56:27.308Z,29.10
2017-08-15T10:58:54.911Z,29.30
2017-08-15T11:01:22.554Z,29.60
2017-08-15T11:03:50.152Z,29.70
2017-08-15T11:06:17.815Z,30.00
2017-08-15T11:08:45.436Z,29.90
2017-08-15T11:11:13.033Z,29.30
2017-08-15T11:13:40.677Z,29.60
2017-08-15T11:16:08.287Z,29.70
2017-08-15T11:18:35.926Z,29.60
2017-08-15T11:21:03.544Z,29.40
2017-08-15T11:23:31.162Z,28.90
2017-08-15T11:25:58.795Z,28.90
2017-08-15T11:28:26.397Z,28.80
2017-08-15T11:30:54.050Z,28.60
2017-08-15T11:33:21.657Z,28.40
2017-08-15T11:35:49.290Z,28.00
2017-08-15T11:38:16.951Z,27.90
2017-08-15T11:40:44.562Z,27.90
2017-08-15T11:43:12.505Z,27.90
2017-08-15T11:45:40.117Z,27.80
2017-08-15T11:48:08.483Z,27.60
2017-08-15T11:50:36.131Z,27.60
2017-08-15T11:53:04.513Z,27.80
2017-08-15T11:55:32.150Z,27.70
2017-08-15T11:58:00.541Z,27.40
2017-08-15T12:00:28.153Z,27.40
2017-08-15T12:02:56.561Z,27.50
2017-08-15T12:05:24.165Z,27.40
2017-08-15T12:07:52.594Z,27.30
2017-08-15T12:10:20.217Z,27.30
2017-08-15T12:12:47.832Z,27.30
2017-08-15T12:15:15.478Z,27.20
2017-08-15T12:17:43.089Z,27.40
2017-08-15T12:20:10.734Z,27.60
2017-08-15T12:22:38.350Z,27.70
2017-08-15T12:25:05.960Z,27.70
2017-08-15T12:27:33.605Z,27.60
2017-08-15T12:30:01.976Z,27.60
2017-08-15T12:32:29.670Z,27.60
2017-08-15T12:34:57.268Z,27.60
2017-08-15T12:37:24.874Z,27.70
2017-08-15T12:39:52.519Z,27.70
2017-08-15T12:42:20.160Z,27.90
2017-08-15T12:44:47.803Z,27.90
2017-08-15T12:47:15.408Z,27.90
2017-08-15T12:49:43.010Z,27.90
2017-08-15T12:52:10.665Z,27.80
2017-08-15T12:54:38.272Z,27.60
2017-08-15T12:57:05.902Z,27.70
2017-08-15T12:59:33.515Z,27.90
2017-08-15T13:02:01.134Z,28.20
2017-08-15T13:04:28.759Z,28.30
2017-08-15T13:06:56.377Z,28.20
2017-08-15T13:09:24.021Z,28.00
2017-08-15T13:11:52.616Z,28.00
2017-08-15T13:14:20.777Z,27.90
2017-08-15T13:16:48.436Z,28.00
2017-08-15T13:19:16.048Z,28.00
2017-08-15T13:21:43.699Z,27.90
2017-08-15T13:24:11.310Z,27.90
2017-08-15T13:26:39.681Z,27.90
2017-08-15T13:29:07.317Z,27.80
2017-08-15T13:31:35.691Z,28.00
2017-08-15T13:34:03.330Z,28.00
2017-08-15T13:36:31.700Z,28.00
2017-08-15T13:39:00.069Z,28.20
2017-08-15T13:41:28.477Z,28.10
2017-08-15T13:43:56.097Z,28.10
2017-08-15T13:46:23.738Z,28.10
2017-08-15T13:48:51.339Z,28.20
2017-08-15T13:51:18.968Z,28.20
2017-08-15T13:53:46.737Z,28.20
2017-08-15T13:56:14.328Z,28.20
2017-08-15T13:58:41.960Z,28.80
2017-08-15T14:01:10.338Z,29.30
2017-08-15T14:03:37.940Z,29.30
2017-08-15T14:06:05.584Z,29.30
2017-08-15T14:08:33.191Z,29.20
2017-08-15T14:11:00.837Z,29.10
2017-08-15T14:13:28.447Z,28.70
2017-08-15T14:15:56.819Z,28.30
2017-08-15T14:18:25.230Z,28.10
2017-08-15T14:20:52.828Z,28.00
2017-08-15T14:23:21.240Z,27.70
2017-08-15T14:25:48.866Z,27.60
2017-08-15T14:28:16.480Z,27.80
2017-08-15T14:30:44.150Z,27.90
2017-08-15T14:33:11.755Z,27.90
2017-08-15T14:35:39.481Z,27.70
2017-08-15T14:38:07.079Z,27.80
2017-08-15T14:40:35.171Z,27.70
2017-08-15T14:43:02.838Z,27.60
2017-08-15T14:45:30.456Z,27.60
2017-08-15T14:47:58.088Z,27.70
2017-08-15T14:50:25.695Z,27.80
2017-08-15T14:52:53.300Z,27.70
2017-08-15T14:55:21.025Z,27.70
2017-08-15T14:57:48.673Z,27.80
2017-08-15T15:00:16.337Z,27.70
2017-08-15T15:02:43.950Z,27.80
2017-08-15T15:05:11.568Z,27.70
2017-08-15T15:07:39.201Z,27.50
2017-08-15T15:10:06.811Z,27.50
2017-08-15T15:12:34.469Z,27.50
2017-08-15T15:15:02.079Z,27.50
2017-08-15T15:17:30.467Z,27.50
2017-08-15T15:19:58.115Z,27.40
2017-08-15T15:22:25.722Z,27.50
2017-08-15T15:24:54.129Z,27.30
2017-08-15T15:27:21.739Z,27.20
2017-08-15T15:29:50.109Z,27.20
2017-08-15T15:32:17.761Z,27.20
2017-08-15T15:34:45.365Z,27.30
2017-08-15T15:37:13.021Z,27.40
2017-08-15T15:39:40.633Z,27.30
2017-08-15T15:42:08.247Z,27.40
2017-08-15T15:44:35.893Z,27.30
2017-08-15T15:47:03.492Z,27.30
2017-08-15T15:49:31.110Z,27.30
2017-08-15T15:51:58.707Z,27.30
2017-08-15T15:54:26.299Z,27.30
2017-08-15T15:56:53.930Z,27.30
2017-08-15T15:59:21.620Z,27.30
2017-08-15T16:01:49.274Z,27.20
2017-08-15T16:04:16.882Z,27.20
2017-08-15T16:06:45.039Z,27.10
2017-08-15T16:09:12.670Z,27.10
2017-08-15T16:11:40.287Z,27.10
2017-08-15T16:14:07.929Z,27.10
2017-08-15T16:16:35.541Z,27.10
2017-08-15T16:19:03.143Z,27.10
2017-08-15T16:21:31.553Z,27.00
2017-08-15T16:23:59.213Z,27.00
2017-08-15T16:26:26.862Z,27.00
2017-08-15T16:28:54.501Z,27.00
2017-08-15T16:31:22.122Z,27.00
2017-08-15T16:33:49.831Z,26.90
2017-08-15T16:36:18.205Z,26.90
2017-08-15T16:38:46.708Z,26.90
2017-08-15T16:41:14.685Z,26.80
2017-08-15T16:43:42.313Z,26.80
2017-08-15T16:46:09.943Z,26.90
2017-08-15T16:48:37.541Z,26.70
2017-08-15T16:51:13.398Z,26.70
2017-08-15T16:53:41.245Z,26.60
2017-08-15T16:56:09.617Z,26.60
2017-08-15T16:58:37.255Z,26.60
2017-08-15T17:01:05.628Z,26.40
2017-08-15T17:03:33.251Z,26.40
2017-08-15T17:06:00.883Z,26.40
2017-08-15T17:08:28.480Z,26.30
2017-08-15T17:10:56.168Z,26.30
2017-08-15T17:13:23.775Z,26.20
2017-08-15T17:15:51.390Z,26.10
2017-08-15T17:18:19.865Z,26.00
2017-08-15T17:20:47.508Z,25.90
2017-08-15T17:23:15.916Z,25.90
2017-08-15T17:25:43.528Z,25.80
2017-08-15T17:28:11.140Z,25.90
2017-08-15T17:30:38.782Z,25.80
2017-08-15T17:33:06.383Z,25.70
2017-08-15T17:35:34.034Z,25.70
2017-08-15T17:38:01.636Z,25.60
2017-08-15T17:40:29.255Z,25.60
2017-08-15T17:42:56.891Z,25.50
2017-08-15T17:45:24.503Z,25.40
2017-08-15T17:47:52.135Z,25.40
2017-08-15T17:50:20.537Z,25.30
2017-08-15T17:52:48.141Z,25.20
2017-08-15T17:55:16.554Z,25.20
2017-08-15T17:57:44.163Z,25.20
2017-08-15T18:00:12.569Z,25.20
2017-08-15T18:02:40.181Z,25.10
2017-08-15T18:05:07.789Z,25.10
2017-08-15T18:07:35.434Z,25.10
2017-08-15T18:10:05.017Z,25.00
2017-08-15T18:12:32.761Z,24.90
2017-08-15T18:15:00.367Z,24.90
2017-08-15T18:17:27.966Z,24.90
2017-08-15T18:19:55.652Z,24.80
2017-08-15T18:22:23.325Z,24.70
2017-08-15T18:24:51.039Z,24.70
2017-08-15T18:27:18.648Z,24.70
2017-08-15T18:29:46.251Z,24.60
2017-08-15T18:32:13.911Z,24.50
2017-08-15T18:34:41.510Z,24.50
2017-08-15T18:37:09.947Z,24.40
2017-08-15T18:39:37.544Z,24.30
2017-08-15T18:42:05.215Z,24.30
2017-08-15T18:44:32.864Z,24.30
2017-08-15T18:47:00.469Z,24.20
2017-08-15T18:49:28.108Z,24.10
2017-08-15T18:51:56.479Z,24.00
2017-08-15T18:54:24.859Z,23.90
2017-08-15T18:56:52.504Z,23.80
2017-08-15T18:59:20.113Z,23.80
2017-08-15T19:01:47.754Z,23.80
2017-08-15T19:04:15.393Z,23.70
2017-08-15T19:06:43.019Z,23.60
2017-08-15T19:09:10.653Z,23.50
2017-08-15T19:11:38.269Z,23.50
2017-08-15T19:14:05.911Z,23.60
2017-08-15T19:16:33.527Z,23.50
2017-08-15T19:19:01.123Z,23.50
2017-08-15T19:21:28.752Z,23.50
2017-08-15T19:23:57.134Z,23.50
2017-08-15T19:26:24.950Z,23.50
2017-08-15T19:28:52.713Z,23.60
2017-08-15T19:31:21.083Z,23.60
2017-08-15T19:33:49.529Z,23.50
2017-08-15T19:36:17.175Z,23.50
2017-08-15T19:38:44.964Z,23.50
2017-08-15T19:41:12.704Z,23.50
2017-08-15T19:43:40.367Z,23.50
2017-08-15T19:46:08.026Z,23.40
2017-08-15T19:48:35.696Z,23.40
2017-08-15T19:51:03.494Z,23.40
2017-08-15T19:53:31.123Z,23.40
2017-08-15T19:55:59.494Z,23.40
2017-08-15T19:58:27.132Z,23.40
2017-08-15T20:00:55.507Z,23.50
2017-08-15T20:03:23.157Z,23.40
2017-08-15T20:05:50.764Z,23.50
2017-08-15T20:08:18.376Z,23.50
2017-08-15T20:10:46.040Z,23.50
2017-08-15T20:13:13.643Z,23.40
2017-08-15T20:15:41.275Z,23.40
2017-08-15T20:18:09.674Z,23.30
2017-08-15T20:20:37.319Z,23.30
2017-08-15T20:23:04.987Z,23.40
2017-08-15T20:25:32.658Z,23.40
2017-08-15T20:28:00.322Z,23.40
2017-08-15T20:30:29.046Z,23.30
2017-08-15T20:32:56.655Z,23.30
2017-08-15T20:35:24.297Z,23.20
2017-08-15T20:37:52.719Z,23.20
2017-08-15T20:40:20.376Z,23.10
2017-08-15T20:42:48.037Z,23.20
2017-08-15T20:45:16.424Z,23.10
2017-08-15T20:47:44.061Z,23.00
2017-08-15T20:50:12.441Z,22.80
2017-08-15T20:52:40.072Z,22.80
2017-08-15T20:55:08.460Z,22.70
2017-08-15T20:57:36.072Z,22.70
2017-08-15T21:00:04.488Z,22.50
2017-08-15T21:02:32.094Z,22.40
2017-08-15T21:04:59.756Z,22.40
2017-08-15T21:07:27.363Z,22.30
2017-08-15T21:09:54.971Z,22.20
2017-08-15T21:12:22.630Z,22.10
2017-08-15T21:14:50.260Z,22.10
2017-08-15T21:17:17.927Z,22.00
2017-08-15T21:19:45.679Z,21.90
2017-08-15T21:22:13.279Z,21.90
2017-08-15T21:24:40.930Z,21.70
2017-08-15T21:27:08.545Z,21.60
2017-08-15T21:29:36.992Z,21.50
2017-08-15T21:32:04.629Z,21.50
2017-08-15T21:34:32.241Z,21.50
2017-08-15T21:36:59.924Z,21.40
2017-08-15T21:39:27.527Z,21.40
2017-08-15T21:41:55.163Z,21.30
2017-08-15T21:44:22.782Z,21.20
2017-08-15T21:46:50.430Z,21.20
2017-08-15T21:49:18.044Z,21.10
2017-08-15T21:51:45.662Z,21.00
2017-08-15T21:54:13.367Z,21.00
2017-08-15T21:56:40.982Z,20.90
2017-08-15T21:59:08.622Z,20.90
2017-08-15T22:01:41.827Z,20.80
2017-08-15T22:04:09.477Z,20.80
2017-08-15T22:06:37.132Z,20.80
2017-08-15T22:09:05.546Z,20.60
2017-08-15T22:11:33.183Z,20.60
2017-08-15T22:14:00.808Z,20.60
2017-08-15T22:16:28.485Z,20.50
2017-08-15T22:18:56.125Z,20.50
2017-08-15T22:21:23.740Z,20.40
2017-08-15T22:23:51.371Z,20.40
2017-08-15T22:26:19.858Z,20.20
2017-08-15T22:28:48.275Z,20.20
2017-08-15T22:31:15.896Z,20.10
2017-08-15T22:33:43.503Z,20.10
2017-08-15T22:36:11.918Z,20.00
2017-08-15T22:38:39.531Z,19.90
2017-08-15T22:41:07.174Z,19.90
2017-08-15T22:43:35.552Z,19.90
2017-08-15T22:46:03.166Z,19.80
2017-08-15T22:48:31.591Z,19.80
2017-08-15T22:50:59.190Z,19.80
2017-08-15T22:53:27.591Z,20.00
2017-08-15T22:55:55.187Z,19.90
2017-08-15T22:58:23.561Z,20.00
2017-08-15T23:00:51.952Z,20.00
2017-08-15T23:03:19.621Z,20.00
2017-08-15T23:05:47.270Z,20.10
2017-08-15T23:08:14.894Z,20.10
2017-08-15T23:10:42.508Z,20.10
2017-08-15T23:13:10.928Z,20.00
2017-08-15T23:15:38.550Z,20.00
2017-08-15T23:18:06.196Z,20.00
2017-08-15T23:20:33.814Z,20.00
2017-08-15T23:23:01.424Z,19.90
2017-08-15T23:25:29.055Z,19.90
2017-08-15T23:27:56.669Z,19.90
2017-08-15T23:30:24.317Z,19.90
2017-08-15T23:32:51.925Z,19.80
2017-08-15T23:35:19.572Z,19.70
2017-08-15T23:37:47.225Z,19.80
2017-08-15T23:40:16.455Z,19.60
2017-08-15T23:42:44.098Z,19.50
2017-08-15T23:45:11.709Z,19.60
2017-08-15T23:47:39.316Z,19.60
2017-08-15T23:50:06.950Z,19.60
2017-08-15T23:52:34.552Z,19.50
2017-08-15T23:55:02.197Z,19.50
2017-08-15T23:57:30.572Z,19.40
2017-08-15T23:59:58.188Z,19.30
